createdAt,value
2022-11-26T00:02:23.344Z,101796.00
2022-11-26T00:04:50.370Z,101798.81
2022-11-26T00:07:21.983Z,101800.47
2022-11-26T00:09:49.626Z,101806.41
2022-11-26T00:12:21.896Z,101807.50
2022-11-26T00:14:48.314Z,101812.00
2022-11-26T00:17:15.680Z,101806.91
2022-11-26T00:19:42.993Z,101819.88
2022-11-26T00:22:24.137Z,101807.63
2022-11-26T00:24:50.966Z,101812.25
2022-11-26T00:27:17.620Z,101816.50
2022-11-26T00:29:43.998Z,101821.81
2022-11-26T00:32:16.486Z,101817.06
2022-11-26T00:34:43.242Z,101819.13
2022-11-26T00:37:20.569Z,101821.66
2022-11-26T00:39:47.523Z,101822.53
2022-11-26T00:42:14.118Z,101829.69
2022-11-26T00:44:40.700Z,101835.66
2022-11-26T00:47:09.401Z,101843.16
2022-11-26T00:49:36.083Z,101840.50
2022-11-26T00:52:03.006Z,101850.31
2022-11-26T00:54:29.703Z,101846.69
2022-11-26T00:56:56.089Z,101850.44
2022-11-26T00:59:23.180Z,101860.38
2022-11-26T01:01:50.077Z,101853.81
2022-11-26T01:04:16.502Z,101862.81
2022-11-26T01:06:44.719Z,101865.47
2022-11-26T01:09:19.686Z,101864.84
2022-11-26T01:11:50.874Z,101867.28
2022-11-26T01:14:21.004Z,101868.72
2022-11-26T01:16:48.487Z,101877.84
2022-11-26T01:19:16.320Z,101876.50
2022-11-26T01:21:42.746Z,101872.28
2022-11-26T01:24:09.689Z,101880.38
2022-11-26T01:26:42.138Z,101882.94
2022-11-26T01:29:15.513Z,101880.16
2022-11-26T01:31:42.009Z,101887.53
2022-11-26T01:34:08.451Z,101886.22
2022-11-26T01:36:37.144Z,101885.25
2022-11-26T01:39:14.533Z,101885.59
2022-11-26T01:42:02.381Z,101884.50
2022-11-26T01:44:31.749Z,101896.63
2022-11-26T01:46:59.799Z,101892.28
2022-11-26T01:49:30.578Z,101899.06
2022-11-26T01:52:17.974Z,101893.59
2022-11-26T01:54:44.890Z,101893.47
2022-11-26T01:57:24.184Z,101892.63
2022-11-26T01:59:53.958Z,101903.66
2022-11-26T02:02:24.570Z,101898.56
2022-11-26T02:05:02.855Z,101901.38
2022-11-26T02:07:29.347Z,101915.78
2022-11-26T02:09:55.787Z,101919.06
2022-11-26T02:12:22.327Z,101917.38
2022-11-26T02:14:48.807Z,101923.78
2022-11-26T02:17:29.865Z,101927.66
2022-11-26T02:20:24.614Z,101926.94
2022-11-26T02:23:32.854Z,101940.53
2022-11-26T02:26:20.995Z,101940.28
2022-11-26T02:29:11.773Z,101944.03
2022-11-26T02:31:45.811Z,101945.00
2022-11-26T02:34:36.990Z,101944.88
2022-11-26T02:37:08.165Z,101943.53
2022-11-26T02:39:34.581Z,101939.56
2022-11-26T02:42:03.994Z,101939.56
2022-11-26T02:44:39.633Z,101946.81
2022-11-26T02:47:11.533Z,101943.19
2022-11-26T02:49:40.266Z,101948.06
2022-11-26T02:52:07.675Z,101940.88
2022-11-26T02:54:36.792Z,101938.59
2022-11-26T02:57:07.025Z,101936.53
2022-11-26T02:59:34.439Z,101949.50
2022-11-26T03:02:07.945Z,101950.34
2022-11-26T03:04:39.429Z,101955.09
2022-11-26T03:07:08.606Z,101950.72
2022-11-26T03:09:40.653Z,101963.56
2022-11-26T03:12:07.153Z,101958.72
2022-11-26T03:14:33.630Z,101952.19
2022-11-26T03:17:00.045Z,101954.13
2022-11-26T03:19:26.512Z,101962.22
2022-11-26T03:21:52.890Z,101966.47
2022-11-26T03:24:19.290Z,101963.19
2022-11-26T03:26:45.703Z,101973.16
2022-11-26T03:29:12.094Z,101976.31
2022-11-26T03:31:38.533Z,101975.69
2022-11-26T03:34:04.961Z,101984.81
2022-11-26T03:36:31.388Z,101982.00
2022-11-26T03:38:57.797Z,101981.88
2022-11-26T03:41:24.185Z,101988.78
2022-11-26T03:43:50.578Z,101987.59
2022-11-26T03:46:17.071Z,101986.75
2022-11-26T03:48:43.591Z,101990.38
2022-11-26T03:51:10.020Z,101992.06
2022-11-26T03:53:36.534Z,101997.66
2022-11-26T03:56:02.989Z,101992.56
2022-11-26T03:58:29.907Z,101992.56
2022-11-26T04:00:56.401Z,101999.81
2022-11-26T04:03:23.091Z,102003.34
2022-11-26T04:05:49.566Z,102004.81
2022-11-26T04:08:15.950Z,102010.03
2022-11-26T04:10:42.365Z,102021.56
2022-11-26T04:13:08.764Z,102021.78
2022-11-26T04:15:35.218Z,102019.72
2022-11-26T04:18:01.624Z,102021.91
2022-11-26T04:20:28.121Z,102030.63
2022-11-26T04:22:54.538Z,102035.38
2022-11-26T04:25:20.970Z,102039.13
2022-11-26T04:27:47.369Z,102029.91
2022-11-26T04:30:14.634Z,102035.97
2022-11-26T04:32:41.032Z,102048.22
2022-11-26T04:35:09.257Z,102042.78
2022-11-26T04:37:35.684Z,102052.47
2022-11-26T04:40:02.085Z,102057.69
2022-11-26T04:42:28.501Z,102060.47
2022-11-26T04:44:54.897Z,102067.25
2022-11-26T04:47:21.316Z,102065.94
2022-11-26T04:49:47.692Z,102074.19
2022-11-26T04:52:14.218Z,102077.34
2022-11-26T04:54:40.779Z,102080.22
2022-11-26T04:57:07.303Z,102080.84
2022-11-26T04:59:33.696Z,102073.31
2022-11-26T05:02:00.287Z,102084.09
2022-11-26T05:04:28.163Z,102091.56
2022-11-26T05:06:55.333Z,102097.16
2022-11-26T05:09:22.190Z,102097.38
2022-11-26T05:11:48.583Z,102100.38
2022-11-26T05:14:14.980Z,102105.97
2022-11-26T05:16:41.434Z,102105.38
2022-11-26T05:19:07.862Z,102111.19
2022-11-26T05:21:34.254Z,102116.63
2022-11-26T05:24:00.669Z,102122.72
2022-11-26T05:26:27.366Z,102127.03
2022-11-26T05:28:53.740Z,102128.41
2022-11-26T05:31:20.189Z,102133.16
2022-11-26T05:33:46.573Z,102138.09
2022-11-26T05:36:12.969Z,102133.41
2022-11-26T05:38:39.365Z,102127.78
2022-11-26T05:41:05.789Z,102135.66
2022-11-26T05:43:32.205Z,102131.47
2022-11-26T05:46:07.207Z,102138.03
2022-11-26T05:48:33.952Z,102133.66
2022-11-26T05:51:01.337Z,102144.09
2022-11-26T05:53:28.324Z,102145.78
2022-11-26T05:55:54.729Z,102146.75
2022-11-26T05:58:21.179Z,102159.84
2022-11-26T06:00:47.617Z,102149.34
2022-11-26T06:03:18.520Z,102154.38
2022-11-26T06:05:46.334Z,102160.09
2022-11-26T06:08:12.719Z,102157.75
2022-11-26T06:10:42.115Z,102171.59
2022-11-26T06:13:09.976Z,102166.28
2022-11-26T06:15:36.367Z,102170.13
2022-11-26T06:18:02.750Z,102179.97
2022-11-26T06:20:29.164Z,102182.41
2022-11-26T06:22:55.543Z,102187.50
2022-11-26T06:25:21.948Z,102184.81
2022-11-26T06:27:48.334Z,102199.75
2022-11-26T06:30:14.765Z,102194.41
2022-11-26T06:32:41.238Z,102199.13
2022-11-26T06:35:07.947Z,102206.66
2022-11-26T06:37:34.338Z,102207.66
2022-11-26T06:40:00.992Z,102211.09
2022-11-26T06:42:27.592Z,102207.13
2022-11-26T06:44:58.351Z,102223.16
2022-11-26T06:47:26.488Z,102220.09
2022-11-26T06:49:53.509Z,102228.22
2022-11-26T06:52:19.917Z,102239.94
2022-11-26T06:54:46.292Z,102234.88
2022-11-26T06:57:12.682Z,102238.19
2022-11-26T06:59:39.074Z,102248.59
2022-11-26T07:02:05.514Z,102249.69
2022-11-26T07:04:31.986Z,102252.84
2022-11-26T07:06:58.378Z,102252.72
2022-11-26T07:09:24.951Z,102257.72
2022-11-26T07:11:51.370Z,102265.47
2022-11-26T07:14:18.066Z,102261.47
2022-11-26T07:16:44.470Z,102266.41
2022-11-26T07:19:13.224Z,102261.78
2022-11-26T07:21:39.818Z,102273.69
2022-11-26T07:24:06.388Z,102269.38
2022-11-26T07:26:32.765Z,102275.72
2022-11-26T07:28:59.158Z,102278.19
2022-11-26T07:31:25.569Z,102271.53
2022-11-26T07:33:51.968Z,102283.16
2022-11-26T07:36:24.496Z,102279.94
2022-11-26T07:38:54.659Z,102289.03
2022-11-26T07:41:21.468Z,102282.03
2022-11-26T07:43:47.860Z,102291.88
2022-11-26T07:46:17.445Z,102294.22
2022-11-26T07:48:44.214Z,102302.22
2022-11-26T07:51:19.969Z,102296.94
2022-11-26T07:53:47.325Z,102293.69
2022-11-26T07:56:14.238Z,102299.25
2022-11-26T07:58:40.664Z,102303.63
2022-11-26T08:01:08.902Z,102312.53
2022-11-26T08:03:43.394Z,102305.94
2022-11-26T08:06:12.492Z,102315.31
2022-11-26T08:08:39.069Z,102309.94
2022-11-26T08:11:12.768Z,102312.13
2022-11-26T08:13:39.195Z,102312.69
2022-11-26T08:16:05.762Z,102325.69
2022-11-26T08:18:32.276Z,102319.72
2022-11-26T08:20:59.210Z,102320.31
2022-11-26T08:23:26.027Z,102324.69
2022-11-26T08:26:20.519Z,102332.97
2022-11-26T08:28:39.189Z,102335.31
2022-11-26T08:31:08.745Z,102332.91
2022-11-26T08:33:36.150Z,102331.81
2022-11-26T08:36:07.866Z,102341.59
2022-11-26T08:38:35.756Z,102344.44
2022-11-26T08:41:04.638Z,102343.13
2022-11-26T08:43:51.687Z,102346.06
2022-11-26T08:46:17.494Z,102350.56
2022-11-26T08:48:45.167Z,102353.75
2022-11-26T08:51:12.524Z,102351.50
2022-11-26T08:53:39.622Z,102360.25
2022-11-26T08:56:08.956Z,102360.81
2022-11-26T08:58:40.362Z,102368.63
2022-11-26T09:01:11.517Z,102368.72
2022-11-26T09:03:39.057Z,102373.34
2022-11-26T09:06:07.073Z,102375.56
2022-11-26T09:08:44.869Z,102375.31
2022-11-26T09:11:12.042Z,102374.94
2022-11-26T09:13:38.424Z,102384.53
2022-11-26T09:16:05.071Z,102388.88
2022-11-26T09:18:31.475Z,102385.94
2022-11-26T09:21:02.316Z,102394.06
2022-11-26T09:23:28.970Z,102393.34
2022-11-26T09:25:55.410Z,102397.69
2022-11-26T09:28:21.831Z,102396.72
2022-11-26T09:30:48.234Z,102399.09
2022-11-26T09:33:14.717Z,102406.00
2022-11-26T09:35:41.285Z,102404.31
2022-11-26T09:38:07.893Z,102405.31
2022-11-26T09:40:54.704Z,102415.69
2022-11-26T09:43:33.512Z,102410.09
2022-11-26T09:46:01.370Z,102415.91
2022-11-26T09:48:30.692Z,102421.34
2022-11-26T09:51:07.046Z,102430.91
2022-11-26T09:53:37.718Z,102434.75
2022-11-26T09:56:06.630Z,102430.50
2022-11-26T09:59:02.292Z,102428.13
2022-11-26T10:01:31.121Z,102431.50
2022-11-26T10:03:58.258Z,102428.97
2022-11-26T10:06:40.814Z,102434.75
2022-11-26T10:09:21.647Z,102436.22
2022-11-26T10:11:54.039Z,102439.72
2022-11-26T10:14:47.777Z,102435.91
2022-11-26T10:17:40.891Z,102433.97
2022-11-26T10:20:40.818Z,102429.78
2022-11-26T10:23:12.996Z,102437.31
2022-11-26T10:25:43.322Z,102434.47
2022-11-26T10:28:21.148Z,102449.94
2022-11-26T10:31:02.592Z,102445.00
2022-11-26T10:33:34.220Z,102441.50
2022-11-26T10:36:00.871Z,102446.22
2022-11-26T10:38:27.270Z,102450.63
2022-11-26T10:40:53.661Z,102446.81
2022-11-26T10:43:24.450Z,102450.78
2022-11-26T10:45:53.942Z,102457.00
2022-11-26T10:48:24.555Z,102458.50
2022-11-26T10:51:15.310Z,102460.81
2022-11-26T10:53:59.886Z,102459.88
2022-11-26T10:56:35.938Z,102462.06
2022-11-26T10:59:05.574Z,102466.69
2022-11-26T11:01:36.999Z,102469.19
2022-11-26T11:04:22.662Z,102470.38
2022-11-26T11:06:49.264Z,102468.78
2022-11-26T11:09:28.541Z,102462.91
2022-11-26T11:12:13.571Z,102459.53
2022-11-26T11:14:43.052Z,102462.16
2022-11-26T11:17:28.367Z,102460.28
2022-11-26T11:19:57.530Z,102472.06
2022-11-26T11:22:24.068Z,102480.38
2022-11-26T11:24:50.653Z,102468.03
2022-11-26T11:27:27.046Z,102472.38
2022-11-26T11:29:53.505Z,102478.19
2022-11-26T11:32:40.080Z,102472.75
2022-11-26T11:35:32.679Z,102478.13
2022-11-26T11:37:59.410Z,102482.91
2022-11-26T11:40:29.152Z,102478.41
2022-11-26T11:43:04.096Z,102480.97
2022-11-26T11:45:37.139Z,102477.88
2022-11-26T11:48:29.778Z,102481.53
2022-11-26T11:51:17.618Z,102486.72
2022-11-26T11:54:11.878Z,102487.97
2022-11-26T11:56:46.389Z,102490.19
2022-11-26T12:00:12.504Z,102489.75
2022-11-26T12:02:57.479Z,102489.66
2022-11-26T12:05:47.583Z,102491.38
2022-11-26T12:08:44.430Z,102490.91
2022-11-26T12:11:34.691Z,102491.72
2022-11-26T12:14:07.686Z,102487.03
2022-11-26T12:16:38.689Z,102492.78
2022-11-26T12:19:25.538Z,102490.69
2022-11-26T12:21:58.904Z,102500.53
2022-11-26T12:24:44.546Z,102494.88
2022-11-26T12:27:38.930Z,102491.53
2022-11-26T12:30:14.078Z,102497.91
2022-11-26T12:32:48.210Z,102491.41
2022-11-26T12:35:32.611Z,102494.19
2022-11-26T12:38:08.925Z,102498.03
2022-11-26T12:40:45.836Z,102502.47
2022-11-26T12:43:18.952Z,102496.03
2022-11-26T12:45:51.221Z,102498.75
2022-11-26T12:48:27.857Z,102495.72
2022-11-26T12:51:04.169Z,102497.72
2022-11-26T12:53:53.998Z,102495.19
2022-11-26T12:56:42.953Z,102500.69
2022-11-26T12:59:50.198Z,102498.66
2022-11-26T13:02:22.700Z,102504.72
2022-11-26T13:04:50.282Z,102496.97
2022-11-26T13:07:48.305Z,102489.75
2022-11-26T13:10:51.003Z,102490.75
2022-11-26T13:13:48.238Z,102494.38
2022-11-26T13:16:26.659Z,102499.38
2022-11-26T13:19:06.437Z,102498.66
2022-11-26T13:21:44.888Z,102502.63
2022-11-26T13:24:51.366Z,102508.50
2022-11-26T13:27:41.466Z,102500.22
2022-11-26T13:30:24.746Z,102506.97
2022-11-26T13:33:20.470Z,102503.72
2022-11-26T13:36:12.099Z,102507.41
2022-11-26T13:39:19.858Z,102511.59
2022-11-26T13:42:07.842Z,102505.72
2022-11-26T13:45:02.862Z,102514.97
2022-11-26T13:47:40.866Z,102508.56
2022-11-26T13:50:23.647Z,102514.75
2022-11-26T13:53:06.059Z,102516.06
2022-11-26T13:55:50.694Z,102514.34
2022-11-26T13:58:25.418Z,102514.81
2022-11-26T14:00:51.931Z,102528.75
2022-11-26T14:03:48.211Z,102508.72
2022-11-26T14:06:15.551Z,102515.16
2022-11-26T14:08:47.280Z,102517.09
2022-11-26T14:11:45.626Z,102520.53
2022-11-26T14:14:30.542Z,102515.72
2022-11-26T14:17:15.792Z,102525.63
2022-11-26T14:19:45.272Z,102523.47
2022-11-26T14:22:11.644Z,102522.16
2022-11-26T14:24:50.272Z,102522.69
2022-11-26T14:27:39.590Z,102527.44
2022-11-26T14:30:05.923Z,102531.72
2022-11-26T14:32:56.038Z,102515.53
2022-11-26T14:35:33.905Z,102518.97
2022-11-26T14:38:02.486Z,102515.09
2022-11-26T14:40:34.986Z,102529.19
2022-11-26T14:43:15.794Z,102528.31
2022-11-26T14:45:44.731Z,102533.09
2022-11-26T14:48:26.050Z,102527.28
2022-11-26T14:50:54.192Z,102540.16
2022-11-26T14:53:23.620Z,102533.25
2022-11-26T14:55:50.726Z,102527.50
2022-11-26T14:58:33.598Z,102538.22
2022-11-26T15:01:15.100Z,102537.75
2022-11-26T15:03:42.576Z,102547.13
2022-11-26T15:06:24.378Z,102548.34
2022-11-26T15:08:50.771Z,102549.50
2022-11-26T15:11:21.334Z,102558.31
2022-11-26T15:13:48.088Z,102552.91
2022-11-26T15:16:37.945Z,102558.03
2022-11-26T15:19:05.742Z,102556.97
2022-11-26T15:21:33.565Z,102554.19
2022-11-26T15:24:07.008Z,102558.44
2022-11-26T15:26:35.684Z,102557.13
2022-11-26T15:29:03.260Z,102546.38
2022-11-26T15:31:40.706Z,102542.69
2022-11-26T15:34:12.220Z,102543.78
2022-11-26T15:36:38.933Z,102550.69
2022-11-26T15:39:07.801Z,102541.66
2022-11-26T15:41:42.664Z,102549.19
2022-11-26T15:44:27.861Z,102545.94
2022-11-26T15:46:57.154Z,102540.63
2022-11-26T15:49:28.736Z,102541.84
2022-11-26T15:51:59.939Z,102550.22
2022-11-26T15:54:49.540Z,102543.56
2022-11-26T15:57:38.210Z,102542.47
2022-11-26T16:00:27.628Z,102540.78
2022-11-26T16:02:54.344Z,102539.50
2022-11-26T16:05:32.944Z,102542.56
2022-11-26T16:08:05.435Z,102532.63
2022-11-26T16:10:36.792Z,102532.97
2022-11-26T16:13:15.058Z,102533.88
2022-11-26T16:15:56.542Z,102538.22
2022-11-26T16:18:28.188Z,102539.31
2022-11-26T16:21:03.323Z,102540.81
2022-11-26T16:23:30.361Z,102540.81
2022-11-26T16:26:17.574Z,102545.38
2022-11-26T16:28:45.898Z,102554.84
2022-11-26T16:31:13.615Z,102563.63
2022-11-26T16:33:40.562Z,102559.75
2022-11-26T16:36:28.555Z,102567.03
2022-11-26T16:38:54.981Z,102575.63
2022-11-26T16:41:22.484Z,102581.63
2022-11-26T16:43:49.567Z,102585.50
2022-11-26T16:46:20.024Z,102585.50
2022-11-26T16:48:47.158Z,102584.44
2022-11-26T16:51:13.544Z,102585.28
2022-11-26T16:53:39.949Z,102583.13
2022-11-26T16:56:10.801Z,102590.00
2022-11-26T16:58:37.867Z,102585.03
2022-11-26T17:01:04.415Z,102589.56
2022-11-26T17:03:33.264Z,102585.03
2022-11-26T17:06:12.196Z,102586.47
2022-11-26T17:08:38.646Z,102586.13
2022-11-26T17:11:05.076Z,102588.91
2022-11-26T17:13:31.523Z,102592.25
2022-11-26T17:15:58.149Z,102593.91
2022-11-26T17:18:26.056Z,102586.47
2022-11-26T17:20:53.678Z,102593.13
2022-11-26T17:23:20.411Z,102597.38
2022-11-26T17:25:51.812Z,102599.97
2022-11-26T17:28:18.207Z,102592.94
2022-11-26T17:30:44.989Z,102594.84
2022-11-26T17:33:11.871Z,102600.47
2022-11-26T17:35:38.418Z,102597.22
2022-11-26T17:38:13.520Z,102595.63
2022-11-26T17:40:39.950Z,102596.16
2022-11-26T17:43:06.370Z,102591.41
2022-11-26T17:45:32.772Z,102593.56
2022-11-26T17:47:59.157Z,102594.66
2022-11-26T17:50:27.300Z,102598.47
2022-11-26T17:52:54.717Z,102596.53
2022-11-26T17:55:23.035Z,102604.91
2022-11-26T17:57:49.602Z,102600.00
2022-11-26T18:00:20.339Z,102603.50
2022-11-26T18:02:46.796Z,102608.81
2022-11-26T18:05:13.602Z,102605.00
2022-11-26T18:07:40.691Z,102597.38
2022-11-26T18:10:11.019Z,102596.53
2022-11-26T18:12:38.535Z,102599.97
2022-11-26T18:15:05.606Z,102602.41
2022-11-26T18:17:32.032Z,102600.72
2022-11-26T18:19:58.410Z,102605.66
2022-11-26T18:22:26.204Z,102604.81
2022-11-26T18:24:56.332Z,102606.28
2022-11-26T18:27:26.606Z,102606.75
2022-11-26T18:29:53.022Z,102599.91
2022-11-26T18:32:20.010Z,102598.22
2022-11-26T18:34:48.914Z,102596.66
2022-11-26T18:37:15.597Z,102590.78
2022-11-26T18:39:42.236Z,102590.78
2022-11-26T18:42:36.087Z,102589.25
2022-11-26T18:44:55.106Z,102592.50
2022-11-26T18:47:21.492Z,102584.56
2022-11-26T18:49:48.239Z,102587.69
2022-11-26T18:52:14.827Z,102577.66
2022-11-26T18:54:41.241Z,102586.69
2022-11-26T18:57:07.637Z,102582.88
2022-11-26T18:59:34.978Z,102575.13
2022-11-26T19:02:01.468Z,102580.31
2022-11-26T19:04:27.934Z,102580.53
2022-11-26T19:06:54.335Z,102579.69
2022-11-26T19:09:20.924Z,102580.31
2022-11-26T19:11:48.326Z,102574.03
2022-11-26T19:14:15.938Z,102581.38
2022-11-26T19:16:43.287Z,102577.97
2022-11-26T19:19:10.104Z,102574.09
2022-11-26T19:21:36.839Z,102575.59
2022-11-26T19:24:05.909Z,102564.19
2022-11-26T19:26:32.305Z,102565.91
2022-11-26T19:29:04.945Z,102565.63
2022-11-26T19:31:35.830Z,102563.88
2022-11-26T19:34:06.030Z,102568.69
2022-11-26T19:36:33.475Z,102566.97
2022-11-26T19:39:01.075Z,102565.03
2022-11-26T19:41:28.855Z,102577.13
2022-11-26T19:43:55.321Z,102571.78
2022-11-26T19:46:24.494Z,102573.00
2022-11-26T19:48:52.031Z,102582.41
2022-11-26T19:51:20.326Z,102582.25
2022-11-26T19:53:48.940Z,102577.06
2022-11-26T19:56:21.330Z,102575.59
2022-11-26T19:58:47.974Z,102576.81
2022-11-26T20:01:16.515Z,102576.06
2022-11-26T20:03:44.150Z,102571.34
2022-11-26T20:06:14.819Z,102566.22
2022-11-26T20:08:41.278Z,102575.06
2022-11-26T20:11:08.958Z,102582.88
2022-11-26T20:13:36.706Z,102582.41
2022-11-26T20:16:07.563Z,102577.75
2022-11-26T20:18:36.250Z,102581.38
2022-11-26T20:21:05.465Z,102577.75
2022-11-26T20:23:31.861Z,102580.03
2022-11-26T20:25:58.303Z,102577.91
2022-11-26T20:28:25.939Z,102588.69
2022-11-26T20:30:52.582Z,102581.63
2022-11-26T20:33:19.479Z,102581.16
2022-11-26T20:35:46.038Z,102576.78
2022-11-26T20:38:13.004Z,102571.59
2022-11-26T20:40:42.198Z,102578.09
2022-11-26T20:43:09.813Z,102568.41
2022-11-26T20:45:36.834Z,102568.44
2022-11-26T20:48:04.139Z,102574.13
2022-11-26T20:50:30.792Z,102581.34
2022-11-26T20:52:57.427Z,102587.06
2022-11-26T20:55:25.061Z,102584.28
2022-11-26T20:57:51.730Z,102589.09
2022-11-26T21:00:20.451Z,102589.31
2022-11-26T21:02:50.327Z,102585.91
2022-11-26T21:05:16.977Z,102581.16
2022-11-26T21:07:43.493Z,102584.19
2022-11-26T21:10:10.693Z,102584.88
2022-11-26T21:12:37.433Z,102593.25
2022-11-26T21:15:05.153Z,102582.09
2022-11-26T21:17:31.585Z,102581.84
2022-11-26T21:19:58.004Z,102577.34
2022-11-26T21:22:24.571Z,102581.84
2022-11-26T21:24:50.957Z,102583.78
2022-11-26T21:27:17.362Z,102586.59
2022-11-26T21:29:46.095Z,102585.50
2022-11-26T21:32:12.483Z,102577.75
2022-11-26T21:34:38.861Z,102580.31
2022-11-26T21:37:05.329Z,102576.16
2022-11-26T21:39:31.948Z,102587.69
2022-11-26T21:41:58.337Z,102577.97
2022-11-26T21:44:24.723Z,102578.69
2022-11-26T21:46:51.200Z,102574.75
2022-11-26T21:49:17.658Z,102582.41
2022-11-26T21:51:44.062Z,102583.72
2022-11-26T21:54:10.558Z,102580.38
2022-11-26T21:56:37.076Z,102577.25
2022-11-26T21:59:03.644Z,102582.66
2022-11-26T22:01:32.827Z,102585.44
2022-11-26T22:04:02.449Z,102580.09
2022-11-26T22:06:29.346Z,102578.84
2022-11-26T22:08:56.252Z,102585.50
2022-11-26T22:11:28.456Z,102580.09
2022-11-26T22:13:55.702Z,102584.72
2022-11-26T22:16:23.848Z,102584.34
2022-11-26T22:18:50.784Z,102581.09
2022-11-26T22:21:26.210Z,102586.50
2022-11-26T22:23:53.040Z,102584.63
2022-11-26T22:26:20.278Z,102582.94
2022-11-26T22:28:47.372Z,102582.09
2022-11-26T22:31:22.558Z,102581.66
2022-11-26T22:33:53.098Z,102580.44
2022-11-26T22:36:19.531Z,102582.38
2022-11-26T22:38:45.984Z,102582.38
2022-11-26T22:41:13.918Z,102583.22
2022-11-26T22:43:41.137Z,102583.44
2022-11-26T22:46:11.141Z,102586.03
2022-11-26T22:48:37.872Z,102585.09
2022-11-26T22:51:04.446Z,102587.16
2022-11-26T22:53:33.226Z,102579.91
2022-11-26T22:56:01.931Z,102579.22
2022-11-26T22:58:29.466Z,102587.50
2022-11-26T23:01:01.801Z,102584.06
2022-11-26T23:03:30.070Z,102588.63
2022-11-26T23:05:56.493Z,102593.81
2022-11-26T23:08:22.885Z,102588.25
2022-11-26T23:10:49.422Z,102586.97
2022-11-26T23:13:16.273Z,102579.06
2022-11-26T23:15:45.217Z,102576.47
2022-11-26T23:18:13.886Z,102580.34
2022-11-26T23:20:41.455Z,102577.13
2022-11-26T23:23:08.112Z,102576.09
2022-11-26T23:25:38.928Z,102580.16
2022-11-26T23:28:06.545Z,102577.78
2022-11-26T23:30:33.300Z,102576.34
2022-11-26T23:32:59.667Z,102569.25
2022-11-26T23:35:26.063Z,102575.91
2022-11-26T23:37:52.436Z,102571.88
2022-11-26T23:40:18.858Z,102567.59
2022-11-26T23:42:45.242Z,102562.53
2022-11-26T23:45:11.640Z,102569.47
2022-11-26T23:47:39.777Z,102565.72
2022-11-26T23:50:07.014Z,102566.38
2022-11-26T23:52:34.098Z,102566.44
2022-11-26T23:55:00.485Z,102565.75
2022-11-26T23:57:26.876Z,102569.44
2022-11-26T23:59:53.266Z,102570.91
